Time;durP1;ratioP1;P1;durP2;ratioP2;P2;SDS_P1;SDS_P2;PMS_P1;PMS_P2;Temp;Humidity;BMP_temperature;BMP_pressure;BME280_temperature;BME280_humidity;BME280_pressure;Samples;Min_cycle;Max_cycle;Signal;HPM_P1;HPM_P2
2021/10/05 00:02:18;;;;;;;6.75;6.15;;;;;;;;;;7328276;19;161821;-15
2021/10/05 00:04:46;;;;;;;7.07;6.38;;;;;;;;;;7329717;19;162548;-14
2021/10/05 00:07:14;;;;;;;7.13;5.88;;;;;;;;;;7329930;19;154032;-14
2021/10/05 00:09:42;;;;;;;6.85;6.25;;;;;;;;;;7329889;19;153541;-15
2021/10/05 00:12:10;;;;;;;6.82;5.72;;;;;;;;;;7327322;19;162057;-16
2021/10/05 00:14:39;;;;;;;7.13;4.97;;;;;;;;;;7329698;19;162465;-12
2021/10/05 00:17:07;;;;;;;3.53;3.22;;;;;;;;;;7328019;19;154051;-14
2021/10/05 10:46:02;;;;;;;1.05;0.70;;;;;;;;;;7370008;19;132634;-15
2021/10/05 10:48:33;;;;;;;1.33;0.60;;;;;;;;;;7364305;19;153204;-14
2021/10/05 10:51:15;;;;;;;1.13;0.57;;;;;;;;;;7363433;19;162178;-15
2021/10/05 10:53:45;;;;;;;4.53;0.70;;;;;;;;;;7362665;19;162609;-16
2021/10/05 10:56:36;;;;;;;0.95;0.60;;;;;;;;;;7364072;19;153979;-16
2021/10/05 10:59:07;;;;;;;1.17;0.80;;;;;;;;;;7363973;19;153559;-15
2021/10/05 11:01:46;;;;;;;1.10;0.65;;;;;;;;;;7363730;19;162139;-15
2021/10/05 11:04:16;;;;;;;1.73;0.60;;;;;;;;;;7363488;19;162660;-16
2021/10/05 11:06:47;;;;;;;1.40;0.63;;;;;;;;;;7363856;19;153904;-13
2021/10/05 11:09:16;;;;;;;0.95;0.57;;;;;;;;;;7363479;19;153710;-14
2021/10/05 11:11:46;;;;;;;0.77;0.50;;;;;;;;;;7363253;19;161928;-16
2021/10/05 11:14:20;;;;;;;1.35;0.60;;;;;;;;;;7360955;19;162647;-16
2021/10/05 11:17:01;;;;;;;1.05;0.80;;;;;;;;;;7363729;19;153975;-13
2021/10/05 11:19:32;;;;;;;1.52;0.73;;;;;;;;;;7363456;19;153554;-16
2021/10/05 11:22:03;;;;;;;1.85;0.70;;;;;;;;;;7362963;19;161936;-13
2021/10/05 11:24:50;;;;;;;1.73;0.68;;;;;;;;;;7361860;19;162692;-12
2021/10/05 11:27:20;;;;;;;1.13;0.70;;;;;;;;;;7363369;19;154185;-13
2021/10/05 11:29:49;;;;;;;1.33;0.50;;;;;;;;;;7363201;19;153587;-21
2021/10/05 11:32:19;;;;;;;1.83;0.63;;;;;;;;;;7362810;19;162110;-15
2021/10/05 11:34:49;;;;;;;2.25;0.60;;;;;;;;;;7361492;19;162489;-17
2021/10/05 11:37:19;;;;;;;2.13;0.68;;;;;;;;;;7363079;19;153951;-17
2021/10/05 11:39:50;;;;;;;1.80;0.65;;;;;;;;;;7361871;19;153542;-17
2021/10/05 11:42:23;;;;;;;0.57;0.45;;;;;;;;;;7364129;19;162104;-15
2021/10/05 11:44:53;;;;;;;0.90;0.60;;;;;;;;;;7358621;19;162683;-14
2021/10/05 11:47:23;;;;;;;0.77;0.60;;;;;;;;;;7333528;19;153942;-16
2021/10/05 11:49:56;;;;;;;0.50;0.50;;;;;;;;;;7336474;19;153788;-14
2021/10/05 11:52:27;;;;;;;1.48;1.15;;;;;;;;;;7333026;19;162117;-17
2021/10/05 11:54:57;;;;;;;1.23;0.52;;;;;;;;;;7331873;19;163013;-14
2021/10/05 11:57:27;;;;;;;1.35;0.65;;;;;;;;;;7333703;19;154027;-14
2021/10/05 12:00:04;;;;;;;0.52;0.50;;;;;;;;;;7333479;19;153697;-15
2021/10/05 12:02:41;;;;;;;0.70;0.63;;;;;;;;;;7333530;19;161863;-15
2021/10/05 12:05:24;;;;;;;1.27;0.77;;;;;;;;;;7332192;19;162570;-15
2021/10/05 12:07:52;;;;;;;2.47;0.90;;;;;;;;;;7333544;19;154515;-14
2021/10/05 12:10:21;;;;;;;2.88;0.77;;;;;;;;;;7333377;19;153539;-15
2021/10/05 12:12:49;;;;;;;2.63;0.82;;;;;;;;;;7333077;19;162303;-16
2021/10/05 12:15:24;;;;;;;1.73;0.60;;;;;;;;;;7331029;19;162504;-15
2021/10/05 12:18:02;;;;;;;0.98;0.60;;;;;;;;;;7332339;19;154088;-13
2021/10/05 12:20:38;;;;;;;0.90;0.55;;;;;;;;;;7332155;19;153837;-14
2021/10/05 12:23:08;;;;;;;1.35;0.73;;;;;;;;;;7331344;19;162119;-16
2021/10/05 12:25:42;;;;;;;2.60;0.70;;;;;;;;;;7332271;19;162403;-17
2021/10/05 12:28:10;;;;;;;0.85;0.60;;;;;;;;;;7333039;19;154295;-21
2021/10/05 12:30:38;;;;;;;0.68;0.60;;;;;;;;;;7333283;19;153727;-15
2021/10/05 12:33:11;;;;;;;2.08;0.80;;;;;;;;;;7331423;19;161991;-15
2021/10/05 12:35:41;;;;;;;2.20;0.55;;;;;;;;;;7330676;19;162520;-14
2021/10/05 12:38:17;;;;;;;3.33;0.82;;;;;;;;;;7332957;19;154018;-17
2021/10/05 12:40:56;;;;;;;0.90;0.55;;;;;;;;;;7332933;19;153535;-17
2021/10/05 12:43:33;;;;;;;2.85;0.80;;;;;;;;;;7332593;19;161916;-15
2021/10/05 12:46:06;;;;;;;0.68;0.52;;;;;;;;;;7331193;19;163315;-16
2021/10/05 12:48:43;;;;;;;1.67;0.90;;;;;;;;;;7332547;19;153701;-14
2021/10/05 12:51:11;;;;;;;0.85;0.60;;;;;;;;;;7332381;19;153520;-14
2021/10/05 12:53:45;;;;;;;1.52;0.60;;;;;;;;;;7332077;19;161597;-18
2021/10/05 12:56:14;;;;;;;1.95;0.90;;;;;;;;;;7329618;19;162470;-14
2021/10/05 12:58:42;;;;;;;2.13;0.68;;;;;;;;;;7329117;19;153946;-15
2021/10/05 13:01:10;;;;;;;2.85;0.88;;;;;;;;;;7331272;19;153647;-17
2021/10/05 13:03:39;;;;;;;2.40;0.80;;;;;;;;;;7330666;19;161901;-18
2021/10/05 13:06:07;;;;;;;3.17;0.80;;;;;;;;;;7331685;19;162472;-17
2021/10/05 13:08:36;;;;;;;2.63;0.80;;;;;;;;;;7332531;19;153967;-17
2021/10/05 13:11:04;;;;;;;2.67;0.70;;;;;;;;;;7332072;19;153569;-17
2021/10/05 13:13:32;;;;;;;1.52;0.77;;;;;;;;;;7331735;19;162049;-16
2021/10/05 13:16:00;;;;;;;0.85;0.70;;;;;;;;;;7328412;19;162576;-13
2021/10/05 13:18:28;;;;;;;2.25;0.70;;;;;;;;;;7331817;19;153926;-15
2021/10/05 13:20:56;;;;;;;3.08;1.10;;;;;;;;;;7331866;19;153720;-16
2021/10/05 13:23:24;;;;;;;3.22;0.88;;;;;;;;;;7333023;19;161962;-15
2021/10/05 13:25:52;;;;;;;1.92;0.85;;;;;;;;;;7334786;19;162521;-12
2021/10/05 13:28:20;;;;;;;2.00;0.90;;;;;;;;;;7328396;19;154056;-17
2021/10/05 13:30:48;;;;;;;3.20;0.70;;;;;;;;;;7329947;19;153903;-14
2021/10/05 13:33:16;;;;;;;1.92;0.80;;;;;;;;;;7329191;19;162301;-16
2021/10/05 13:35:44;;;;;;;2.38;0.80;;;;;;;;;;7329737;19;162420;-15
2021/10/05 13:38:12;;;;;;;0.65;0.60;;;;;;;;;;7331856;19;154024;-14
2021/10/05 13:40:43;;;;;;;0.80;0.50;;;;;;;;;;7331460;19;153691;-16
2021/10/05 13:43:13;;;;;;;2.22;0.88;;;;;;;;;;7329884;19;161805;-24
2021/10/05 13:45:42;;;;;;;2.03;0.77;;;;;;;;;;7328230;19;162534;-16
2021/10/05 13:48:10;;;;;;;1.40;0.80;;;;;;;;;;7330452;19;153955;-16
2021/10/05 13:50:40;;;;;;;1.65;0.88;;;;;;;;;;7330139;19;153562;-16
2021/10/05 13:53:08;;;;;;;1.88;0.90;;;;;;;;;;7330838;19;162290;-18
2021/10/05 13:55:37;;;;;;;1.05;0.63;;;;;;;;;;7328996;19;162232;-17
2021/10/05 13:58:05;;;;;;;1.70;0.90;;;;;;;;;;7331154;19;154257;-16
2021/10/05 14:00:33;;;;;;;1.10;0.73;;;;;;;;;;7330871;19;153546;-16
2021/10/05 14:03:01;;;;;;;1.17;0.70;;;;;;;;;;7330376;19;161633;-15
2021/10/05 14:05:29;;;;;;;1.15;0.85;;;;;;;;;;7330402;19;162633;-15
2021/10/05 14:07:56;;;;;;;0.70;0.55;;;;;;;;;;7330086;19;153999;-15
2021/10/05 14:10:24;;;;;;;1.63;0.68;;;;;;;;;;7330280;19;153532;-16
2021/10/05 14:12:52;;;;;;;1.85;0.90;;;;;;;;;;7330130;19;161949;-16
2021/10/05 14:15:20;;;;;;;1.30;0.80;;;;;;;;;;7327837;19;162613;-15
2021/10/05 14:17:48;;;;;;;1.92;1.00;;;;;;;;;;7330429;19;153671;-14
2021/10/05 14:20:16;;;;;;;1.52;0.90;;;;;;;;;;7330203;19;153497;-14
2021/10/05 14:22:44;;;;;;;2.90;1.10;;;;;;;;;;7328747;19;161853;-15
2021/10/05 14:25:17;;;;;;;2.03;0.90;;;;;;;;;;7329489;19;162512;-14
2021/10/05 14:27:47;;;;;;;1.33;0.90;;;;;;;;;;7330134;19;153980;-14
2021/10/05 14:30:17;;;;;;;2.05;1.00;;;;;;;;;;7328712;19;153607;-13
2021/10/05 14:32:45;;;;;;;2.35;0.90;;;;;;;;;;7329640;19;161848;-12
2021/10/05 14:35:14;;;;;;;0.65;0.65;;;;;;;;;;7328532;19;162727;-15
2021/10/05 14:37:41;;;;;;;1.38;0.80;;;;;;;;;;7329741;19;154127;-12
2021/10/05 14:40:10;;;;;;;1.25;0.80;;;;;;;;;;7329743;19;153592;-13
2021/10/05 14:42:38;;;;;;;1.63;1.00;;;;;;;;;;7329176;19;161917;-14
2021/10/05 14:45:07;;;;;;;1.42;1.00;;;;;;;;;;7326972;19;162645;-16
2021/10/05 14:47:35;;;;;;;1.17;0.80;;;;;;;;;;7329543;19;154242;-15
2021/10/05 14:50:04;;;;;;;1.52;0.90;;;;;;;;;;7329318;19;153503;-14
2021/10/05 14:52:31;;;;;;;1.48;0.98;;;;;;;;;;7328689;19;161818;-14
2021/10/05 14:55:01;;;;;;;1.30;1.00;;;;;;;;;;7327090;19;162764;-14
2021/10/05 14:57:30;;;;;;;1.40;0.98;;;;;;;;;;7329106;19;154187;-13
2021/10/05 14:59:58;;;;;;;1.90;1.13;;;;;;;;;;7328783;19;153666;-15
2021/10/05 15:02:28;;;;;;;0.93;0.80;;;;;;;;;;7328330;19;161841;-13
2021/10/05 15:04:56;;;;;;;1.45;0.85;;;;;;;;;;7328440;19;162778;-14
2021/10/05 15:07:24;;;;;;;2.15;0.77;;;;;;;;;;7328965;19;153788;-14
2021/10/05 15:09:52;;;;;;;1.10;0.90;;;;;;;;;;7328687;19;153754;-13
2021/10/05 15:12:20;;;;;;;1.98;1.10;;;;;;;;;;7327227;19;162050;-14
2021/10/05 15:14:48;;;;;;;1.40;1.10;;;;;;;;;;7328110;19;162488;-14
2021/10/05 15:17:15;;;;;;;1.35;0.93;;;;;;;;;;7327238;19;154359;-16
2021/10/05 15:19:43;;;;;;;1.83;1.00;;;;;;;;;;7328573;19;153570;-14
2021/10/05 15:22:11;;;;;;;1.33;1.00;;;;;;;;;;7334181;19;161835;-15
2021/10/05 15:24:39;;;;;;;2.08;0.98;;;;;;;;;;7334898;19;162483;-15
2021/10/05 15:27:07;;;;;;;1.25;0.90;;;;;;;;;;7335244;19;154037;-15
2021/10/05 15:29:41;;;;;;;1.25;0.77;;;;;;;;;;7333962;19;153575;-12
2021/10/05 15:32:10;;;;;;;1.38;0.95;;;;;;;;;;7333537;19;161976;-17
2021/10/05 15:34:38;;;;;;;1.73;1.15;;;;;;;;;;7334489;19;162651;-14
2021/10/05 15:37:05;;;;;;;2.05;1.10;;;;;;;;;;7332731;19;154122;-14
2021/10/05 15:39:36;;;;;;;0.73;0.70;;;;;;;;;;7334832;19;153520;-14
2021/10/05 15:42:05;;;;;;;1.48;1.00;;;;;;;;;;7334432;19;162070;-17
2021/10/05 15:44:33;;;;;;;0.65;0.65;;;;;;;;;;7331926;19;162918;-13
2021/10/05 15:47:04;;;;;;;1.88;1.10;;;;;;;;;;7333978;19;154128;-16
2021/10/05 15:49:31;;;;;;;1.98;1.10;;;;;;;;;;7334195;19;153800;-15
2021/10/05 15:52:18;;;;;;;2.05;1.00;;;;;;;;;;7333834;19;161812;-14
2021/10/05 15:54:46;;;;;;;1.92;1.13;;;;;;;;;;7333643;19;162628;-16
2021/10/05 15:57:14;;;;;;;2.25;1.40;;;;;;;;;;7331682;19;154021;-16
2021/10/05 15:59:42;;;;;;;2.78;1.35;;;;;;;;;;7333033;19;153547;-14
2021/10/05 16:02:10;;;;;;;2.67;1.30;;;;;;;;;;7335950;19;162092;-16
2021/10/05 16:04:38;;;;;;;1.73;1.25;;;;;;;;;;7337033;19;162601;-14
2021/10/05 16:07:06;;;;;;;3.45;1.40;;;;;;;;;;7336931;19;154005;-13
2021/10/05 16:09:34;;;;;;;4.15;1.38;;;;;;;;;;7336167;19;153593;-16
2021/10/05 16:12:02;;;;;;;3.67;1.60;;;;;;;;;;7335368;19;161994;-14
2021/10/05 16:14:29;;;;;;;4.32;1.60;;;;;;;;;;7336319;19;162897;-15
2021/10/05 16:16:57;;;;;;;2.53;1.20;;;;;;;;;;7334102;19;154113;-16
2021/10/05 16:19:25;;;;;;;2.38;1.30;;;;;;;;;;7335944;19;153710;-13
2021/10/05 16:21:53;;;;;;;3.38;1.50;;;;;;;;;;7335689;19;161850;-14
2021/10/05 16:24:21;;;;;;;2.55;1.40;;;;;;;;;;7335866;19;162618;-14
2021/10/05 16:26:49;;;;;;;2.15;1.13;;;;;;;;;;7335228;19;154355;-13
2021/10/05 16:29:17;;;;;;;2.92;1.38;;;;;;;;;;7336823;19;153719;-15
2021/10/05 16:31:45;;;;;;;3.10;1.40;;;;;;;;;;7335260;19;161840;-14
2021/10/05 16:34:13;;;;;;;2.40;1.40;;;;;;;;;;7334099;19;162649;-16
2021/10/05 16:36:54;;;;;;;3.22;1.67;;;;;;;;;;7332872;19;154011;-13
2021/10/05 16:39:21;;;;;;;2.80;1.50;;;;;;;;;;7333699;19;153506;-15
2021/10/05 16:41:49;;;;;;;2.67;1.60;;;;;;;;;;7334678;19;161987;-17
2021/10/05 16:44:17;;;;;;;2.35;1.40;;;;;;;;;;7334440;19;162772;-17
2021/10/05 16:46:45;;;;;;;2.47;1.50;;;;;;;;;;7336073;19;154082;-14
2021/10/05 16:49:13;;;;;;;4.28;1.88;;;;;;;;;;7335312;19;154156;-14
2021/10/05 16:51:41;;;;;;;3.05;1.48;;;;;;;;;;7335423;19;161829;-17
2021/10/05 16:54:09;;;;;;;1.40;1.17;;;;;;;;;;7335660;19;162399;-16
2021/10/05 16:56:37;;;;;;;2.22;1.30;;;;;;;;;;7333768;19;154011;-15
2021/10/05 16:59:05;;;;;;;1.92;1.38;;;;;;;;;;7334754;19;153736;-15
2021/10/05 17:01:35;;;;;;;1.90;1.40;;;;;;;;;;7330756;19;162031;-14
2021/10/05 17:04:03;;;;;;;1.77;1.30;;;;;;;;;;7331080;19;162454;-16
2021/10/05 17:06:31;;;;;;;3.92;1.50;;;;;;;;;;7332223;19;154688;-14
2021/10/05 17:08:59;;;;;;;2.65;1.58;;;;;;;;;;7331825;19;153479;-14
2021/10/05 17:11:27;;;;;;;2.67;1.45;;;;;;;;;;7330485;19;161920;-16
2021/10/05 17:13:55;;;;;;;2.25;1.10;;;;;;;;;;7330238;19;162540;-14
2021/10/05 17:16:23;;;;;;;3.47;1.52;;;;;;;;;;7329772;19;154172;-15
2021/10/05 17:18:51;;;;;;;2.85;1.42;;;;;;;;;;7330531;19;153573;-17
2021/10/05 17:21:20;;;;;;;3.55;1.35;;;;;;;;;;7331475;19;161844;-14
2021/10/05 17:23:49;;;;;;;2.88;1.38;;;;;;;;;;7331433;19;162469;-16
2021/10/05 17:26:17;;;;;;;2.75;1.42;;;;;;;;;;7331725;19;154030;-15
2021/10/05 17:28:48;;;;;;;3.67;1.55;;;;;;;;;;7331694;19;153588;-16
2021/10/05 17:31:16;;;;;;;2.55;1.73;;;;;;;;;;7331207;19;161847;-17
2021/10/05 17:33:43;;;;;;;3.10;1.55;;;;;;;;;;7331540;19;162713;-13
2021/10/05 17:36:11;;;;;;;2.67;1.52;;;;;;;;;;7332658;19;154004;-17
2021/10/05 17:38:39;;;;;;;3.13;1.65;;;;;;;;;;7329199;19;153517;-17
2021/10/05 17:41:07;;;;;;;2.22;1.48;;;;;;;;;;7331703;19;161666;-14
2021/10/05 17:43:35;;;;;;;3.58;1.90;;;;;;;;;;7331926;19;162592;-16
2021/10/05 17:46:03;;;;;;;2.97;1.65;;;;;;;;;;7329424;19;153971;-16
2021/10/05 17:48:31;;;;;;;2.10;1.30;;;;;;;;;;7333936;19;154149;-16
2021/10/05 17:50:59;;;;;;;3.13;1.60;;;;;;;;;;7333477;19;161871;-16
2021/10/05 17:53:29;;;;;;;3.63;1.85;;;;;;;;;;7332280;19;162507;-17
2021/10/05 17:55:57;;;;;;;2.92;1.38;;;;;;;;;;7334298;19;154033;-17
2021/10/05 17:58:26;;;;;;;2.53;1.73;;;;;;;;;;7334489;19;153767;-15
2021/10/05 18:00:55;;;;;;;2.92;1.80;;;;;;;;;;7333227;19;162072;-14
2021/10/05 18:03:23;;;;;;;3.15;1.60;;;;;;;;;;7332106;19;162651;-15
2021/10/05 18:05:54;;;;;;;1.95;1.38;;;;;;;;;;7333620;19;154129;-14
2021/10/05 18:08:22;;;;;;;2.08;1.40;;;;;;;;;;7331092;19;153539;-14
2021/10/05 18:10:50;;;;;;;3.47;1.55;;;;;;;;;;7333190;19;161854;-14
2021/10/05 18:13:18;;;;;;;3.13;1.60;;;;;;;;;;7332829;19;162607;-15
2021/10/05 18:15:46;;;;;;;2.50;1.40;;;;;;;;;;7333651;19;153970;-15
2021/10/05 18:18:14;;;;;;;1.73;1.25;;;;;;;;;;7329905;19;153541;-14
2021/10/05 18:20:42;;;;;;;2.15;1.50;;;;;;;;;;7332126;19;161833;-13
2021/10/05 18:23:09;;;;;;;4.38;1.73;;;;;;;;;;7332538;19;162491;-13
2021/10/05 18:25:38;;;;;;;3.42;1.67;;;;;;;;;;7330798;19;154224;-14
2021/10/05 18:28:07;;;;;;;2.38;1.48;;;;;;;;;;7333286;19;153535;-13
2021/10/05 18:30:35;;;;;;;3.20;1.55;;;;;;;;;;7331909;19;161820;-13
2021/10/05 18:33:04;;;;;;;2.67;1.40;;;;;;;;;;7332452;19;162598;-15
2021/10/05 18:35:32;;;;;;;2.25;1.33;;;;;;;;;;7331847;19;153949;-13
2021/10/05 18:38:00;;;;;;;2.50;1.60;;;;;;;;;;7329444;19;153490;-16
2021/10/05 18:40:28;;;;;;;2.13;1.30;;;;;;;;;;7331167;19;161932;-15
2021/10/05 18:42:57;;;;;;;1.98;1.50;;;;;;;;;;7331275;19;162533;-15
2021/10/05 18:45:28;;;;;;;2.40;1.63;;;;;;;;;;7327040;19;154082;-13
2021/10/05 18:47:59;;;;;;;2.33;1.33;;;;;;;;;;7327887;19;153582;-13
2021/10/05 18:50:27;;;;;;;1.67;1.35;;;;;;;;;;7328337;19;161829;-16
2021/10/05 18:52:55;;;;;;;3.25;1.42;;;;;;;;;;7328315;19;162706;-15
2021/10/05 18:55:28;;;;;;;1.88;1.30;;;;;;;;;;7329928;19;153860;-15
2021/10/05 18:57:56;;;;;;;1.40;1.20;;;;;;;;;;7333875;19;153606;-16
2021/10/05 19:00:26;;;;;;;1.50;1.15;;;;;;;;;;7335264;19;161923;-17
2021/10/05 19:02:54;;;;;;;2.20;1.40;;;;;;;;;;7334049;19;162496;-14
2021/10/05 19:05:22;;;;;;;3.13;1.55;;;;;;;;;;7335481;19;153991;-15
2021/10/05 19:07:50;;;;;;;1.38;1.27;;;;;;;;;;7335374;19;153678;-15
2021/10/05 19:10:18;;;;;;;2.22;1.60;;;;;;;;;;7337243;19;161698;-14
2021/10/05 19:12:47;;;;;;;2.28;1.50;;;;;;;;;;7337880;19;162606;-17
2021/10/05 19:15:14;;;;;;;2.00;1.30;;;;;;;;;;7338347;19;154043;-16
2021/10/05 19:17:42;;;;;;;4.07;1.33;;;;;;;;;;7335889;19;153628;-17
2021/10/05 19:20:10;;;;;;;1.77;1.38;;;;;;;;;;7337686;19;161949;-15
2021/10/05 19:22:38;;;;;;;1.25;1.15;;;;;;;;;;7337971;19;162561;-15
2021/10/05 19:25:08;;;;;;;0.90;0.90;;;;;;;;;;7337990;19;154103;-15
2021/10/05 19:27:36;;;;;;;1.38;1.27;;;;;;;;;;7338105;19;153807;-16
2021/10/05 19:30:04;;;;;;;1.60;1.27;;;;;;;;;;7337446;19;161973;-15
2021/10/05 19:32:33;;;;;;;1.90;1.17;;;;;;;;;;7337028;19;162257;-16
2021/10/05 19:35:01;;;;;;;1.45;1.10;;;;;;;;;;7336565;19;154102;-16
2021/10/05 19:37:29;;;;;;;1.17;1.00;;;;;;;;;;7335930;19;154360;-14
2021/10/05 19:39:57;;;;;;;1.98;1.30;;;;;;;;;;7337940;19;161967;-16
2021/10/05 19:42:25;;;;;;;1.00;0.93;;;;;;;;;;7337325;19;162534;-15
2021/10/05 19:44:53;;;;;;;1.38;1.13;;;;;;;;;;7336423;19;153721;-16
2021/10/05 19:47:20;;;;;;;1.63;1.23;;;;;;;;;;7336990;19;153689;-13
2021/10/05 19:49:48;;;;;;;1.33;1.23;;;;;;;;;;7335674;19;162024;-15
2021/10/05 19:52:16;;;;;;;1.52;1.27;;;;;;;;;;7336145;19;162819;-14
2021/10/05 19:54:44;;;;;;;1.02;0.90;;;;;;;;;;7333766;19;154017;-14
2021/10/05 19:57:12;;;;;;;1.33;0.98;;;;;;;;;;7333242;19;153661;-15
2021/10/05 19:59:40;;;;;;;1.10;0.98;;;;;;;;;;7332548;19;161966;-16
2021/10/05 20:02:08;;;;;;;1.40;1.13;;;;;;;;;;7332199;19;162466;-14
2021/10/05 20:04:36;;;;;;;1.48;1.25;;;;;;;;;;7333782;19;153994;-15
2021/10/05 20:07:04;;;;;;;2.78;1.48;;;;;;;;;;7332465;19;153642;-15
2021/10/05 20:09:32;;;;;;;2.00;1.58;;;;;;;;;;7333075;19;162101;-15
2021/10/05 20:12:00;;;;;;;2.28;1.80;;;;;;;;;;7328618;19;162500;-16
2021/10/05 20:14:28;;;;;;;3.90;1.70;;;;;;;;;;7331747;19;154045;-15
2021/10/05 20:16:56;;;;;;;2.00;1.80;;;;;;;;;;7333904;19;153497;-14
2021/10/05 20:19:24;;;;;;;3.25;1.83;;;;;;;;;;7335502;19;161927;-15
2021/10/05 20:21:52;;;;;;;2.08;1.85;;;;;;;;;;7332996;19;162674;-16
2021/10/05 20:24:20;;;;;;;3.58;2.00;;;;;;;;;;7335357;19;153996;-16
2021/10/05 20:26:49;;;;;;;1.40;1.30;;;;;;;;;;7332744;19;153577;-16
2021/10/05 20:29:18;;;;;;;1.60;1.50;;;;;;;;;;7332677;19;161615;-15
2021/10/05 20:31:47;;;;;;;1.75;1.63;;;;;;;;;;7332241;19;162518;-14
2021/10/05 20:34:15;;;;;;;2.70;1.85;;;;;;;;;;7332947;19;153995;-13
2021/10/05 20:36:43;;;;;;;3.00;1.85;;;;;;;;;;7334721;19;153692;-17
2021/10/05 20:39:11;;;;;;;2.67;1.55;;;;;;;;;;7333356;19;162030;-13
2021/10/05 20:41:39;;;;;;;3.67;1.65;;;;;;;;;;7335530;19;162597;-15
2021/10/05 20:44:07;;;;;;;1.75;1.30;;;;;;;;;;7329838;19;154049;-13
2021/10/05 20:46:35;;;;;;;1.45;1.35;;;;;;;;;;7332024;19;153667;-15
2021/10/05 20:49:03;;;;;;;1.92;1.70;;;;;;;;;;7334271;19;161879;-13
2021/10/05 20:51:31;;;;;;;2.13;1.40;;;;;;;;;;7334316;19;162468;-14
2021/10/05 20:53:59;;;;;;;1.73;1.48;;;;;;;;;;7333143;19;154066;-16
2021/10/05 20:56:29;;;;;;;4.28;1.48;;;;;;;;;;7334294;19;153515;-16
2021/10/05 20:58:58;;;;;;;1.67;1.30;;;;;;;;;;7330349;19;161875;-16
2021/10/05 21:01:26;;;;;;;1.35;1.25;;;;;;;;;;7332379;19;162665;-15
2021/10/05 21:03:54;;;;;;;2.80;1.50;;;;;;;;;;7334137;19;153998;-13
2021/10/05 21:06:22;;;;;;;4.00;1.40;;;;;;;;;;7330722;19;153554;-14
2021/10/05 21:08:50;;;;;;;3.28;1.65;;;;;;;;;;7333636;19;161845;-16
2021/10/05 21:11:18;;;;;;;2.53;1.30;;;;;;;;;;7331526;19;162443;-13
2021/10/05 21:13:46;;;;;;;3.33;1.50;;;;;;;;;;7333488;19;154754;-15
2021/10/05 21:16:14;;;;;;;1.58;1.40;;;;;;;;;;7332934;19;153505;-13
2021/10/05 21:18:42;;;;;;;1.70;1.50;;;;;;;;;;7326000;19;161875;-16
2021/10/05 21:21:10;;;;;;;2.17;1.20;;;;;;;;;;7333650;19;162551;-14
2021/10/05 21:23:38;;;;;;;3.38;1.30;;;;;;;;;;7332045;19;154148;-14
2021/10/05 21:26:06;;;;;;;1.80;1.30;;;;;;;;;;7332495;19;153607;-16
2021/10/05 21:28:34;;;;;;;1.80;1.30;;;;;;;;;;7330980;19;162017;-16
2021/10/05 21:31:02;;;;;;;2.38;1.35;;;;;;;;;;7332359;19;162728;-15
2021/10/05 21:33:30;;;;;;;1.85;1.40;;;;;;;;;;7331521;19;154026;-12
2021/10/05 21:35:58;;;;;;;2.45;1.63;;;;;;;;;;7332023;19;153887;-16
2021/10/05 21:38:25;;;;;;;1.83;1.27;;;;;;;;;;7331074;19;161997;-13
2021/10/05 21:40:53;;;;;;;2.45;1.25;;;;;;;;;;7333143;19;162760;-13
2021/10/05 21:43:21;;;;;;;1.85;1.70;;;;;;;;;;7330472;19;154035;-12
2021/10/05 21:45:49;;;;;;;1.40;1.30;;;;;;;;;;7328041;19;153677;-14
2021/10/05 21:48:18;;;;;;;1.88;1.38;;;;;;;;;;7330790;19;161864;-15
2021/10/05 21:50:46;;;;;;;1.70;1.20;;;;;;;;;;7331573;19;163001;-15
2021/10/05 21:53:14;;;;;;;1.20;1.08;;;;;;;;;;7331655;19;153936;-21
2021/10/05 21:55:42;;;;;;;1.27;1.08;;;;;;;;;;7331465;19;153570;-14
2021/10/05 21:58:14;;;;;;;;;;;;;;;;;;7330609;19;161879;-16
2021/10/05 22:00:43;;;;;;;1.25;1.10;;;;;;;;;;7331770;19;162781;-16
2021/10/05 22:03:11;;;;;;;1.65;1.30;;;;;;;;;;7332972;19;154027;-16
2021/10/05 22:05:39;;;;;;;1.67;1.30;;;;;;;;;;7329941;19;154363;-13
2021/10/05 22:08:07;;;;;;;1.42;1.10;;;;;;;;;;7330806;19;161871;-12
2021/10/05 22:10:35;;;;;;;1.20;1.10;;;;;;;;;;7331666;19;162664;-14
2021/10/05 22:13:03;;;;;;;1.35;0.90;;;;;;;;;;7332867;19;153993;-16
2021/10/05 22:15:31;;;;;;;2.55;1.23;;;;;;;;;;7333709;19;153736;-17
2021/10/05 22:17:59;;;;;;;2.22;1.20;;;;;;;;;;7329547;19;161769;-15
2021/10/05 22:20:27;;;;;;;2.35;1.38;;;;;;;;;;7330302;19;162704;-15
2021/10/05 22:22:55;;;;;;;3.17;1.15;;;;;;;;;;7332073;19;154357;-14
2021/10/05 22:25:23;;;;;;;2.40;1.05;;;;;;;;;;7331448;19;153613;-17
2021/10/05 22:27:50;;;;;;;0.80;0.80;;;;;;;;;;7329305;19;161291;-15
2021/10/05 22:30:20;;;;;;;1.77;1.05;;;;;;;;;;7329245;19;162511;-15
2021/10/05 22:32:49;;;;;;;1.48;1.05;;;;;;;;;;7331320;19;154947;-14
2021/10/05 22:35:18;;;;;;;1.58;0.90;;;;;;;;;;7331908;19;153598;-16
2021/10/05 22:37:48;;;;;;;1.08;0.98;;;;;;;;;;7326030;19;162704;-16
2021/10/05 22:40:18;;;;;;;1.92;1.10;;;;;;;;;;7327054;19;162557;-14
2021/10/05 22:42:47;;;;;;;1.45;0.95;;;;;;;;;;7329551;19;154042;-17
2021/10/05 22:45:19;;;;;;;1.85;1.05;;;;;;;;;;7329821;19;153498;-14
2021/10/05 22:47:48;;;;;;;1.47;1.00;;;;;;;;;;7327588;19;161970;-12
2021/10/05 22:50:18;;;;;;;1.88;0.90;;;;;;;;;;7328057;19;162610;-14
2021/10/05 22:52:46;;;;;;;1.40;1.00;;;;;;;;;;7328738;19;154087;-16
2021/10/05 22:55:15;;;;;;;1.00;0.77;;;;;;;;;;7330259;19;153535;-16
2021/10/05 22:57:43;;;;;;;1.13;0.95;;;;;;;;;;7331149;19;162055;-14
2021/10/05 23:00:14;;;;;;;1.92;1.20;;;;;;;;;;7326162;19;163719;-16
2021/10/05 23:02:42;;;;;;;1.40;1.00;;;;;;;;;;7330003;19;154122;-14
2021/10/05 23:05:10;;;;;;;1.00;0.90;;;;;;;;;;7329658;19;153742;-13
2021/10/05 23:07:39;;;;;;;2.38;1.13;;;;;;;;;;7330908;19;161867;-15
2021/10/05 23:10:08;;;;;;;3.22;1.20;;;;;;;;;;7327498;19;162469;-16
2021/10/05 23:12:36;;;;;;;1.10;0.98;;;;;;;;;;7328062;19;154092;-17
2021/10/05 23:15:05;;;;;;;1.13;0.80;;;;;;;;;;7330062;19;153586;-16
2021/10/05 23:17:33;;;;;;;0.88;0.80;;;;;;;;;;7330225;19;162005;-14
2021/10/05 23:20:00;;;;;;;0.95;0.88;;;;;;;;;;7325221;19;162636;-16
2021/10/05 23:22:28;;;;;;;1.15;1.00;;;;;;;;;;7328586;19;154093;-17
2021/10/05 23:24:56;;;;;;;2.22;1.05;;;;;;;;;;7329232;19;153660;-15
2021/10/05 23:27:26;;;;;;;1.08;0.90;;;;;;;;;;7329932;19;162058;-13
2021/10/05 23:29:54;;;;;;;1.15;0.93;;;;;;;;;;7330490;19;162537;-14
2021/10/05 23:32:22;;;;;;;1.58;0.80;;;;;;;;;;7328674;19;154014;-14
2021/10/05 23:34:51;;;;;;;1.95;0.90;;;;;;;;;;7329027;19;153670;-17
2021/10/05 23:37:19;;;;;;;1.70;0.90;;;;;;;;;;7329230;19;162492;-14
2021/10/05 23:39:46;;;;;;;1.05;0.85;;;;;;;;;;7327661;19;162569;-15
2021/10/05 23:42:14;;;;;;;2.30;0.90;;;;;;;;;;7329995;19;154303;-16
2021/10/05 23:44:42;;;;;;;1.50;0.80;;;;;;;;;;7334880;19;153574;-12
2021/10/05 23:47:11;;;;;;;2.03;0.80;;;;;;;;;;7335903;19;162017;-17
2021/10/05 23:49:39;;;;;;;1.67;0.88;;;;;;;;;;7335930;19;162791;-16
2021/10/05 23:52:07;;;;;;;2.05;0.77;;;;;;;;;;7330934;19;154200;-12
2021/10/05 23:54:35;;;;;;;1.98;0.88;;;;;;;;;;7333857;19;153758;-16
